Time;durP1;ratioP1;P1;durP2;ratioP2;P2;SDS_P1;SDS_P2;PMS_P1;PMS_P2;Temp;Humidity;BMP_temperature;BMP_pressure;BME280_temperature;BME280_humidity;BME280_pressure;Samples;Min_cycle;Max_cycle;Signal;HPM_P1;HPM_P2
2023/02/12 00:05:08;;;;;;;0.20;0.10;;;5.80;99.90;;;;;;21159740;28;20429;-66
2023/02/12 00:15:13;;;;;;;0.20;0.10;;;5.60;99.90;;;;;;21157399;28;20947;-65
2023/02/12 00:25:17;;;;;;;0.20;0.10;;;5.50;99.90;;;;;;21119463;28;20407;-66
2023/02/12 00:35:23;;;;;;;0.20;0.10;;;5.50;99.90;;;;;;21154434;28;20428;-65
2023/02/12 00:45:27;;;;;;;0.20;0.10;;;5.30;99.90;;;;;;21154904;28;20451;-64
2023/02/12 00:55:32;;;;;;;0.20;0.10;;;5.30;99.90;;;;;;21137338;28;20450;-66
2023/02/12 01:05:36;;;;;;;0.20;0.10;;;5.70;99.90;;;;;;21136676;28;20410;-65
2023/02/12 01:15:42;;;;;;;0.20;0.10;;;5.60;99.90;;;;;;21154462;28;20439;-65
2023/02/12 01:25:46;;;;;;;0.20;0.10;;;5.50;99.90;;;;;;21153800;28;20452;-65
2023/02/12 01:35:52;;;;;;;0.20;0.10;;;5.40;99.90;;;;;;21152955;28;20396;-65
2023/02/12 01:45:59;;;;;;;0.20;0.10;;;5.40;99.90;;;;;;21132567;28;20488;-65
2023/02/12 01:56:05;;;;;;;0.20;0.10;;;5.40;99.90;;;;;;21146964;28;20455;-65
2023/02/12 02:06:13;;;;;;;0.20;0.10;;;5.20;99.90;;;;;;21064453;28;20446;-66
2023/02/12 02:16:24;;;;;;;0.20;0.10;;;5.00;99.90;;;;;;21063602;28;20461;-66
2023/02/12 02:27:09;;;;;;;0.20;0.10;;;5.10;99.90;;;;;;21062874;28;20469;-65
2023/02/12 02:37:19;;;;;;;0.20;0.10;;;5.10;99.90;;;;;;21044255;28;20409;-66
2023/02/12 02:47:32;;;;;;;0.20;0.10;;;4.80;99.90;;;;;;21112986;28;20430;-66
2023/02/12 02:57:42;;;;;;;0.20;0.10;;;4.70;99.90;;;;;;21127323;28;20440;-65
2023/02/12 03:07:51;;;;;;;0.20;0.10;;;4.70;99.90;;;;;;21144867;28;20426;-66
2023/02/12 03:17:58;;;;;;;0.20;0.10;;;4.50;99.90;;;;;;21146144;28;20402;-65
2023/02/12 03:28:07;;;;;;;0.20;0.10;;;4.60;99.90;;;;;;21145448;28;20784;-66
2023/02/12 03:38:22;;;;;;;0.20;0.10;;;4.40;99.90;;;;;;21126788;28;20390;-66
2023/02/12 03:48:32;;;;;;;0.20;0.10;;;4.40;99.90;;;;;;21109108;28;20411;-67
2023/02/12 03:58:38;;;;;;;0.20;0.10;;;4.30;99.90;;;;;;21143569;28;20456;-66
2023/02/12 04:08:42;;;;;;;0.20;0.10;;;4.20;99.90;;;;;;21142839;28;20414;-66
2023/02/12 04:18:49;;;;;;;0.20;0.10;;;4.70;99.90;;;;;;21158492;28;20387;-66
2023/02/12 04:29:03;;;;;;;0.20;0.10;;;4.80;99.90;;;;;;21139924;28;20431;-66
2023/02/12 04:39:12;;;;;;;0.20;0.10;;;4.50;99.90;;;;;;21157100;28;20737;-66
2023/02/12 04:49:18;;;;;;;0.20;0.10;;;4.20;99.90;;;;;;21156049;28;20920;-65
2023/02/12 04:59:23;;;;;;;0.20;0.10;;;4.30;99.90;;;;;;21138089;28;20478;-66
2023/02/12 05:09:27;;;;;;;0.20;0.10;;;4.30;99.90;;;;;;21153478;28;20467;-65
2023/02/12 05:19:32;;;;;;;0.20;0.10;;;4.40;99.90;;;;;;21166273;27;20403;-65
2023/02/12 05:29:36;;;;;;;0.20;0.10;;;4.30;99.90;;;;;;21151905;28;20415;-65
2023/02/12 05:39:42;;;;;;;0.20;0.10;;;4.30;99.90;;;;;;21152031;28;20394;-66
2023/02/12 05:49:46;;;;;;;0.20;0.10;;;4.60;99.90;;;;;;21150921;28;20410;-66
2023/02/12 05:59:51;;;;;;;0.20;0.10;;;4.50;99.90;;;;;;21151241;28;20405;-67
2023/02/12 06:09:54;;;;;;;0.20;0.10;;;4.30;99.90;;;;;;21150207;28;20415;-67
2023/02/12 06:20:00;;;;;;;0.20;0.10;;;4.40;99.90;;;;;;21130943;28;20449;-66
2023/02/12 06:30:04;;;;;;;0.20;0.10;;;4.50;99.90;;;;;;21148250;28;20453;-66
2023/02/12 06:40:10;;;;;;;0.20;0.10;;;4.40;99.90;;;;;;21148295;28;20452;-66
2023/02/12 06:50:14;;;;;;;0.20;0.10;;;4.30;99.90;;;;;;21146035;28;20406;-66
2023/02/12 07:00:21;;;;;;;0.20;0.10;;;4.20;99.90;;;;;;21128306;28;20886;-65
2023/02/12 07:10:24;;;;;;;0.20;0.20;;;4.20;99.90;;;;;;21126473;28;20422;-66
2023/02/12 07:20:29;;;;;;;0.20;0.10;;;4.30;99.90;;;;;;21145661;28;20396;-66
2023/02/12 07:30:33;;;;;;;0.20;0.10;;;4.50;99.90;;;;;;21144811;28;20468;-66
2023/02/12 07:40:39;;;;;;;0.20;0.10;;;4.90;99.90;;;;;;21144777;28;20408;-66
2023/02/12 07:50:42;;;;;;;0.20;0.10;;;5.30;99.90;;;;;;21154502;28;20457;-66
2023/02/12 08:00:48;;;;;;;0.20;0.10;;;5.80;99.90;;;;;;21160319;28;20402;-66
2023/02/12 08:10:51;;;;;;;0.20;0.00;;;6.20;99.90;;;;;;21158915;28;20402;-66
2023/02/12 08:21:02;;;;;;;0.20;0.10;;;6.50;99.90;;;;;;21158519;28;20402;-66
2023/02/12 08:31:09;;;;;;;0.20;0.10;;;7.30;99.90;;;;;;21137384;28;20803;-67
2023/02/12 08:41:17;;;;;;;0.20;0.10;;;8.00;99.90;;;;;;21136085;28;20395;-65
2023/02/12 08:51:25;;;;;;;0.20;0.10;;;8.40;99.90;;;;;;21129978;28;20391;-68
2023/02/12 09:01:33;;;;;;;0.20;0.10;;;8.90;99.90;;;;;;21137099;28;20431;-68
2023/02/12 09:11:36;;;;;;;0.20;0.10;;;9.80;99.90;;;;;;21153425;28;21049;-66
2023/02/12 09:21:42;;;;;;;0.20;0.10;;;10.40;99.90;;;;;;21134204;28;20401;-66
2023/02/12 09:31:46;;;;;;;0.20;0.10;;;10.50;99.90;;;;;;21132557;28;20414;-67
2023/02/12 09:42:06;;;;;;;0.20;0.10;;;10.80;99.90;;;;;;21132246;28;20484;-70
2023/02/12 09:52:16;;;;;;;0.20;0.10;;;11.10;99.90;;;;;;21147659;28;20976;-67
2023/02/12 10:02:23;;;;;;;0.20;0.10;;;11.30;99.90;;;;;;21142667;28;20407;-66
2023/02/12 10:12:34;;;;;;;0.20;0.10;;;11.60;99.90;;;;;;21111329;28;20510;-68
2023/02/12 10:22:47;;;;;;;0.20;0.10;;;12.00;99.90;;;;;;21147842;28;20399;-66
2023/02/12 10:33:03;;;;;;;0.20;0.10;;;12.40;99.90;;;;;;21145145;28;20446;-67
2023/02/12 10:43:12;;;;;;;0.20;0.00;;;13.00;99.90;;;;;;21145033;28;20405;-68
2023/02/12 10:53:22;;;;;;;0.20;0.10;;;12.90;99.90;;;;;;21144426;28;20439;-68
2023/02/12 11:03:33;;;;;;;0.20;0.10;;;13.70;99.90;;;;;;21125446;28;20386;-67
2023/02/12 11:13:39;;;;;;;0.20;0.10;;;14.10;99.90;;;;;;21142126;28;20414;-67
2023/02/12 11:23:44;;;;;;;0.20;0.10;;;14.50;99.90;;;;;;21148578;28;20401;-68
2023/02/12 11:34:08;;;;;;;0.20;0.10;;;15.40;99.90;;;;;;21139173;28;20410;-67
2023/02/12 11:44:20;;;;;;;0.20;0.10;;;15.00;99.90;;;;;;21154287;28;20405;-68
2023/02/12 11:54:27;;;;;;;0.20;0.07;;;15.30;99.90;;;;;;21135277;28;20487;-67
2023/02/12 12:04:34;;;;;;;0.20;0.10;;;15.80;99.90;;;;;;21052247;28;20396;-67
2023/02/12 12:25:18;;;;;;;0.20;0.10;;;16.60;99.90;;;;;;21034105;28;20408;-68
2023/02/12 12:35:32;;;;;;;0.20;0.10;;;16.90;99.90;;;;;;21133084;28;20441;-67
2023/02/12 12:46:04;;;;;;;0.20;0.10;;;17.30;99.90;;;;;;21148975;28;20391;-68
2023/02/12 12:56:29;;;;;;;0.20;0.10;;;17.40;99.90;;;;;;21111284;28;20403;-69
2023/02/12 13:07:01;;;;;;;0.20;0.10;;;17.40;99.90;;;;;;21131513;27;20463;-69
2023/02/12 13:17:13;;;;;;;0.20;0.10;;;18.00;99.90;;;;;;21149109;28;20399;-67
2023/02/12 13:27:24;;;;;;;0.20;0.10;;;18.10;99.90;;;;;;21111759;28;20494;-68
2023/02/12 13:37:40;;;;;;;0.20;0.10;;;17.50;99.90;;;;;;21061230;28;20404;-68
2023/02/12 13:47:54;;;;;;;0.20;0.10;;;17.20;99.90;;;;;;21077884;28;20759;-67
2023/02/12 13:58:36;;;;;;;0.20;0.10;;;17.80;99.90;;;;;;21061940;28;20400;-67
2023/02/12 14:08:43;;;;;;;0.20;0.03;;;17.80;99.90;;;;;;21061436;28;20499;-68
2023/02/12 14:18:48;;;;;;;0.20;0.10;;;18.40;99.90;;;;;;21061286;28;20406;-67
2023/02/12 14:28:56;;;;;;;0.20;0.10;;;18.60;99.90;;;;;;21060638;28;20463;-68
2023/02/12 14:39:05;;;;;;;0.20;0.10;;;19.20;99.90;;;;;;21059028;28;20408;-68
2023/02/12 14:49:21;;;;;;;0.20;0.05;;;18.90;99.90;;;;;;21055963;28;20424;-69
2023/02/12 14:59:26;;;;;;;0.20;0.10;;;19.20;99.90;;;;;;21057405;28;20409;-69
2023/02/12 15:09:37;;;;;;;0.20;0.10;;;18.80;99.90;;;;;;21057720;28;20416;-66
2023/02/12 15:19:48;;;;;;;0.20;0.10;;;19.60;99.90;;;;;;21058737;28;20396;-68
2023/02/12 15:29:54;;;;;;;0.20;0.10;;;19.50;99.90;;;;;;21058254;28;20419;-68
2023/02/12 15:40:02;;;;;;;0.20;0.10;;;18.90;99.90;;;;;;21055552;28;20475;-69
2023/02/12 15:50:12;;;;;;;0.20;0.10;;;17.30;99.90;;;;;;21056704;28;20402;-68
2023/02/12 16:00:27;;;;;;;0.20;0.10;;;16.10;99.90;;;;;;21022253;28;20392;-69
2023/02/12 16:10:33;;;;;;;0.20;0.10;;;16.10;99.90;;;;;;21064763;28;20404;-67
2023/02/12 16:20:37;;;;;;;0.20;0.10;;;16.20;99.90;;;;;;21071948;28;20407;-68
2023/02/12 16:30:46;;;;;;;0.20;0.10;;;15.80;99.90;;;;;;21070580;28;20411;-67
2023/02/12 16:41:19;;;;;;;0.20;0.10;;;14.80;99.90;;;;;;21069047;28;20911;-68
2023/02/12 16:51:26;;;;;;;0.20;0.10;;;13.90;99.90;;;;;;21142957;28;20937;-66
2023/02/12 17:01:33;;;;;;;0.20;0.10;;;12.80;99.90;;;;;;21150687;28;20929;-67
2023/02/12 17:11:38;;;;;;;0.20;0.00;;;12.40;99.90;;;;;;21134453;28;20409;-67
2023/02/12 17:21:44;;;;;;;0.20;0.00;;;12.00;99.90;;;;;;21131240;28;20490;-66
2023/02/12 17:31:52;;;;;;;0.20;0.10;;;11.70;99.90;;;;;;21150193;28;20481;-66
2023/02/12 17:41:58;;;;;;;0.20;0.10;;;11.50;99.90;;;;;;21130503;28;20481;-66
2023/02/12 17:52:04;;;;;;;0.20;0.10;;;11.30;99.90;;;;;;21148569;28;20418;-68
2023/02/12 18:02:11;;;;;;;0.20;0.10;;;11.20;99.90;;;;;;21146909;28;20394;-68
2023/02/12 18:12:17;;;;;;;0.20;0.10;;;10.80;99.90;;;;;;21127361;28;20483;-66
2023/02/12 18:22:21;;;;;;;0.20;0.10;;;10.00;99.90;;;;;;21144823;28;20418;-67
2023/02/12 18:32:27;;;;;;;0.20;0.10;;;9.00;99.90;;;;;;21143507;28;20963;-67
2023/02/12 18:42:32;;;;;;;0.20;0.10;;;8.70;99.90;;;;;;21124305;28;20390;-69
2023/02/12 18:52:37;;;;;;;0.20;0.07;;;8.50;99.90;;;;;;21143653;28;20413;-69
2023/02/12 19:02:42;;;;;;;0.20;0.10;;;8.30;99.90;;;;;;21107848;28;20497;-67
2023/02/12 19:12:47;;;;;;;0.20;0.10;;;8.00;99.90;;;;;;21142237;28;20463;-68
2023/02/12 19:22:51;;;;;;;0.20;0.10;;;7.80;99.90;;;;;;21123124;28;20422;-68
2023/02/12 19:32:56;;;;;;;0.20;0.10;;;7.60;99.90;;;;;;21122714;28;20415;-67
2023/02/12 19:43:00;;;;;;;0.20;0.10;;;7.40;99.90;;;;;;21111010;28;20831;-65
2023/02/12 19:53:06;;;;;;;0.20;0.10;;;7.30;99.90;;;;;;21123144;28;20410;-68
2023/02/12 20:03:12;;;;;;;0.20;0.10;;;7.30;99.90;;;;;;21153342;28;20460;-68
2023/02/12 20:13:20;;;;;;;0.20;0.10;;;7.00;99.90;;;;;;21155453;28;20406;-67
2023/02/12 20:23:24;;;;;;;0.20;0.10;;;6.90;99.90;;;;;;21121531;28;20404;-65
2023/02/12 20:33:30;;;;;;;0.20;0.10;;;6.90;99.90;;;;;;21154281;28;20862;-67
2023/02/12 20:43:35;;;;;;;0.20;0.10;;;6.70;99.90;;;;;;21120173;28;20457;-67
2023/02/12 20:53:42;;;;;;;0.20;0.10;;;6.60;99.90;;;;;;21136659;28;20460;-67
2023/02/12 21:03:46;;;;;;;0.20;0.10;;;6.60;99.90;;;;;;21136096;28;20402;-67
2023/02/12 21:13:54;;;;;;;0.20;0.10;;;6.60;99.90;;;;;;21134919;28;20950;-67
2023/02/12 21:24:21;;;;;;;0.20;0.10;;;6.50;99.90;;;;;;21134640;28;20497;-70
2023/02/12 21:34:28;;;;;;;0.20;0.10;;;6.10;99.90;;;;;;21133691;28;20419;-66
2023/02/12 21:44:34;;;;;;;0.20;0.10;;;6.00;99.90;;;;;;21111456;28;20990;-67
2023/02/12 21:54:40;;;;;;;0.20;0.10;;;6.10;99.90;;;;;;21151653;28;20452;-67
2023/02/12 22:04:44;;;;;;;0.20;0.10;;;6.30;99.90;;;;;;21113539;28;20428;-66
2023/02/12 22:14:49;;;;;;;0.20;0.10;;;6.10;99.90;;;;;;21149253;28;20478;-68
2023/02/12 22:24:53;;;;;;;0.20;0.10;;;6.50;99.90;;;;;;21131045;28;20402;-67
2023/02/12 22:34:58;;;;;;;0.20;0.10;;;6.40;99.90;;;;;;21148736;28;20406;-66
2023/02/12 22:45:02;;;;;;;0.20;0.10;;;6.40;99.90;;;;;;21129260;28;20422;-66
2023/02/12 22:55:08;;;;;;;0.20;0.10;;;6.90;99.90;;;;;;21147417;28;20538;-66
2023/02/12 23:05:12;;;;;;;0.20;0.10;;;6.70;99.90;;;;;;21147131;28;20874;-67
2023/02/12 23:15:18;;;;;;;0.20;0.00;;;6.80;99.90;;;;;;21128003;28;20467;-67
2023/02/12 23:25:22;;;;;;;0.20;0.10;;;6.90;99.90;;;;;;21127275;28;20810;-66
2023/02/12 23:35:27;;;;;;;0.20;0.10;;;6.60;99.90;;;;;;21145602;28;20493;-66
2023/02/12 23:45:31;;;;;;;0.20;0.10;;;6.10;99.90;;;;;;21144664;28;20784;-68
2023/02/12 23:55:37;;;;;;;0.20;0.10;;;6.10;99.90;;;;;;21136221;28;20410;-67
